createdAt,value
2022-09-17T00:02:10.241Z,85.57
2022-09-17T00:04:36.826Z,85.43
2022-09-17T00:07:04.221Z,85.51
2022-09-17T00:09:30.916Z,85.15
2022-09-17T00:11:57.374Z,85.43
2022-09-17T00:14:23.806Z,85.42
2022-09-17T00:16:50.261Z,85.62
2022-09-17T00:19:19.945Z,85.71
2022-09-17T00:21:47.353Z,85.73
2022-09-17T00:24:14.887Z,86.12
2022-09-17T00:26:41.880Z,85.91
2022-09-17T00:29:08.786Z,86.10
2022-09-17T00:31:35.790Z,85.89
2022-09-17T00:34:03.964Z,85.78
2022-09-17T00:36:31.017Z,85.72
2022-09-17T00:38:58.931Z,85.49
2022-09-17T00:41:29.155Z,85.17
2022-09-17T00:43:58.099Z,85.41
2022-09-17T00:46:39.066Z,85.12
2022-09-17T00:49:16.610Z,85.61
2022-09-17T00:51:59.648Z,85.36
2022-09-17T00:54:27.656Z,85.67
2022-09-17T00:56:54.086Z,85.79
2022-09-17T00:59:22.363Z,86.01
2022-09-17T01:01:48.968Z,85.95
2022-09-17T01:04:19.805Z,85.48
2022-09-17T01:07:34.071Z,85.73
2022-09-17T01:10:16.740Z,85.68
2022-09-17T01:13:01.895Z,85.28
2022-09-17T01:15:59.144Z,85.04
2022-09-17T01:18:32.124Z,85.24
2022-09-17T01:21:28.023Z,84.24
2022-09-17T01:24:11.985Z,84.36
2022-09-17T01:26:53.126Z,83.93
2022-09-17T01:29:34.016Z,83.97
2022-09-17T01:32:07.649Z,84.03
2022-09-17T01:34:45.588Z,84.27
2022-09-17T01:37:25.882Z,83.82
2022-09-17T01:40:29.659Z,83.83
2022-09-17T01:43:08.212Z,84.19
2022-09-17T01:45:55.267Z,84.47
2022-09-17T01:48:29.482Z,84.64
2022-09-17T01:51:08.789Z,84.63
2022-09-17T01:53:42.306Z,84.61
2022-09-17T01:56:13.325Z,84.46
2022-09-17T01:58:47.567Z,84.00
2022-09-17T02:01:18.079Z,84.17
2022-09-17T02:03:56.728Z,84.11
2022-09-17T02:06:29.874Z,83.99
2022-09-17T02:09:09.999Z,83.89
2022-09-17T02:11:41.240Z,83.87
2022-09-17T02:14:19.164Z,83.79
2022-09-17T02:16:51.924Z,84.25
2022-09-17T02:19:26.989Z,84.36
2022-09-17T02:22:11.822Z,84.58
2022-09-17T02:25:04.557Z,84.40
2022-09-17T02:27:51.955Z,84.46
2022-09-17T02:30:18.689Z,84.25
2022-09-17T02:32:45.129Z,84.85
2022-09-17T02:35:13.837Z,84.55
2022-09-17T02:37:42.114Z,84.73
2022-09-17T02:40:10.556Z,85.06
2022-09-17T02:43:04.937Z,85.23
2022-09-17T02:45:49.589Z,85.27
2022-09-17T02:48:33.284Z,85.05
2022-09-17T02:51:26.204Z,85.35
2022-09-17T02:54:12.122Z,85.54
2022-09-17T02:56:56.344Z,85.39
2022-09-17T02:59:29.400Z,85.60
2022-09-17T03:02:12.820Z,85.63
2022-09-17T03:04:41.294Z,85.25
2022-09-17T03:07:11.915Z,85.40
2022-09-17T03:09:38.865Z,85.71
2022-09-17T03:12:05.622Z,85.88
2022-09-17T03:14:32.070Z,85.39
2022-09-17T03:16:58.564Z,85.63
2022-09-17T03:19:25.026Z,85.43
2022-09-17T03:21:51.496Z,85.05
2022-09-17T03:24:17.818Z,85.08
2022-09-17T03:26:44.425Z,84.95
2022-09-17T03:29:10.761Z,84.84
2022-09-17T03:31:37.182Z,84.75
2022-09-17T03:34:03.658Z,84.49
2022-09-17T03:36:30.053Z,84.90
2022-09-17T03:38:57.432Z,84.72
2022-09-17T03:41:24.941Z,84.55
2022-09-17T03:43:51.386Z,84.27
2022-09-17T03:46:18.560Z,84.19
2022-09-17T03:48:45.226Z,84.26
2022-09-17T03:51:12.279Z,84.48
2022-09-17T03:53:38.674Z,84.62
2022-09-17T03:56:06.893Z,84.81
2022-09-17T03:58:33.622Z,84.48
2022-09-17T04:01:00.271Z,84.99
2022-09-17T04:03:28.174Z,85.11
2022-09-17T04:05:54.797Z,84.95
2022-09-17T04:08:21.826Z,85.62
2022-09-17T04:10:48.828Z,85.94
2022-09-17T04:13:16.790Z,86.02
2022-09-17T04:15:43.364Z,85.75
2022-09-17T04:18:10.101Z,86.09
2022-09-17T04:20:36.494Z,86.19
2022-09-17T04:23:03.066Z,86.35
2022-09-17T04:25:29.462Z,85.90
2022-09-17T04:27:55.781Z,86.28
2022-09-17T04:30:23.013Z,85.54
2022-09-17T04:32:49.446Z,85.39
2022-09-17T04:35:16.011Z,86.01
2022-09-17T04:37:42.397Z,85.78
2022-09-17T04:40:09.489Z,85.87
2022-09-17T04:42:35.895Z,86.00
2022-09-17T04:45:02.249Z,85.26
2022-09-17T04:47:28.588Z,86.21
2022-09-17T04:49:54.918Z,86.20
2022-09-17T04:52:21.275Z,85.85
2022-09-17T04:54:47.622Z,86.29
2022-09-17T04:57:13.953Z,86.23
2022-09-17T04:59:40.278Z,86.11
2022-09-17T05:02:06.619Z,86.24
2022-09-17T05:04:33.005Z,85.92
2022-09-17T05:07:00.217Z,86.17
2022-09-17T05:09:26.963Z,86.77
2022-09-17T05:11:53.276Z,85.81
2022-09-17T05:14:19.609Z,86.33
2022-09-17T05:16:45.953Z,86.12
2022-09-17T05:19:12.316Z,86.13
2022-09-17T05:21:38.646Z,86.36
2022-09-17T05:24:05.121Z,86.61
2022-09-17T05:26:31.494Z,86.34
2022-09-17T05:28:58.006Z,86.77
2022-09-17T05:31:24.705Z,87.22
2022-09-17T05:33:51.179Z,86.99
2022-09-17T05:36:17.511Z,87.45
2022-09-17T05:38:43.895Z,86.49
2022-09-17T05:41:10.247Z,86.54
2022-09-17T05:43:36.592Z,86.45
2022-09-17T05:46:04.390Z,86.71
2022-09-17T05:48:30.774Z,86.28
2022-09-17T05:50:57.246Z,85.97
2022-09-17T05:53:23.929Z,86.76
2022-09-17T05:55:50.254Z,86.79
2022-09-17T05:58:19.178Z,87.14
2022-09-17T06:00:48.884Z,87.40
2022-09-17T06:03:17.637Z,87.10
2022-09-17T06:05:52.147Z,86.71
2022-09-17T06:08:18.604Z,86.41
2022-09-17T06:10:44.956Z,86.68
2022-09-17T06:13:11.401Z,87.09
2022-09-17T06:15:37.799Z,86.87
2022-09-17T06:18:04.172Z,87.23
2022-09-17T06:20:30.530Z,86.45
2022-09-17T06:22:57.732Z,86.88
2022-09-17T06:25:25.238Z,86.54
2022-09-17T06:27:51.815Z,86.77
2022-09-17T06:30:18.284Z,87.58
2022-09-17T06:32:44.585Z,86.92
2022-09-17T06:35:10.918Z,87.43
2022-09-17T06:37:40.212Z,87.01
2022-09-17T06:40:08.347Z,86.65
2022-09-17T06:42:34.845Z,86.09
2022-09-17T06:45:06.979Z,86.32
2022-09-17T06:47:35.005Z,86.76
2022-09-17T06:50:01.711Z,86.54
2022-09-17T06:52:28.223Z,86.08
2022-09-17T06:54:54.562Z,86.60
2022-09-17T06:57:20.953Z,85.77
2022-09-17T06:59:47.316Z,85.62
2022-09-17T07:02:13.718Z,86.08
2022-09-17T07:04:40.175Z,85.67
2022-09-17T07:07:06.550Z,85.35
2022-09-17T07:09:32.873Z,84.78
2022-09-17T07:11:59.436Z,84.89
2022-09-17T07:14:25.805Z,85.31
2022-09-17T07:16:52.642Z,85.01
2022-09-17T07:19:19.010Z,85.10
2022-09-17T07:21:48.409Z,85.18
2022-09-17T07:24:14.740Z,85.02
2022-09-17T07:26:41.122Z,85.22
2022-09-17T07:29:07.965Z,85.03
2022-09-17T07:31:34.397Z,84.87
2022-09-17T07:34:01.623Z,84.96
2022-09-17T07:36:28.056Z,84.82
2022-09-17T07:38:54.383Z,84.66
2022-09-17T07:41:20.724Z,84.71
2022-09-17T07:43:47.114Z,84.34
2022-09-17T07:46:19.128Z,84.66
2022-09-17T07:48:46.672Z,85.44
2022-09-17T07:51:21.940Z,86.11
2022-09-17T07:53:55.163Z,86.71
2022-09-17T07:56:22.617Z,87.15
2022-09-17T07:58:49.198Z,87.83
2022-09-17T08:01:17.140Z,88.86
2022-09-17T08:03:48.619Z,89.15
2022-09-17T08:06:17.666Z,89.22
2022-09-17T08:08:44.077Z,89.10
2022-09-17T08:11:38.228Z,89.84
2022-09-17T08:14:05.505Z,89.14
2022-09-17T08:16:32.152Z,89.47
2022-09-17T08:18:58.695Z,89.89
2022-09-17T08:21:25.358Z,90.88
2022-09-17T08:23:51.850Z,90.82
2022-09-17T08:26:22.599Z,90.81
2022-09-17T08:28:55.451Z,90.65
2022-09-17T08:31:24.230Z,90.98
2022-09-17T08:33:51.089Z,91.31
2022-09-17T08:36:19.162Z,90.80
2022-09-17T08:38:46.099Z,90.95
2022-09-17T08:41:52.609Z,90.82
2022-09-17T08:44:39.145Z,90.21
2022-09-17T08:47:18.343Z,90.35
2022-09-17T08:49:52.121Z,90.52
2022-09-17T08:52:34.436Z,90.66
2022-09-17T08:55:31.269Z,91.01
2022-09-17T08:58:27.236Z,90.90
2022-09-17T09:01:07.888Z,91.15
2022-09-17T09:04:00.501Z,91.29
2022-09-17T09:06:31.810Z,91.16
2022-09-17T09:09:03.983Z,91.03
2022-09-17T09:11:31.398Z,90.55
2022-09-17T09:14:20.089Z,90.95
2022-09-17T09:16:48.216Z,91.03
2022-09-17T09:19:21.811Z,90.85
2022-09-17T09:22:05.869Z,90.73
2022-09-17T09:25:03.169Z,90.79
2022-09-17T09:27:37.365Z,90.60
2022-09-17T09:30:09.650Z,90.47
2022-09-17T09:32:50.486Z,90.56
2022-09-17T09:35:20.860Z,90.53
2022-09-17T09:37:57.110Z,90.80
2022-09-17T09:40:36.065Z,91.11
2022-09-17T09:43:16.253Z,91.23
2022-09-17T09:46:00.285Z,90.68
2022-09-17T09:48:48.070Z,89.53
2022-09-17T09:51:33.207Z,89.22
2022-09-17T09:54:32.298Z,89.52
2022-09-17T09:57:07.435Z,90.20
2022-09-17T09:59:35.916Z,90.19
2022-09-17T10:02:03.018Z,89.62
2022-09-17T10:04:32.175Z,89.05
2022-09-17T10:07:11.394Z,89.04
2022-09-17T10:09:44.798Z,88.59
2022-09-17T10:12:11.084Z,88.42
2022-09-17T10:14:39.241Z,88.39
2022-09-17T10:17:26.083Z,87.78
2022-09-17T10:20:12.102Z,87.44
2022-09-17T10:22:44.585Z,87.92
2022-09-17T10:25:30.378Z,87.57
2022-09-17T10:27:59.754Z,87.14
2022-09-17T10:30:27.429Z,85.85
2022-09-17T10:33:18.682Z,86.01
2022-09-17T10:36:06.258Z,86.14
2022-09-17T10:38:41.281Z,84.92
2022-09-17T10:41:13.854Z,83.88
2022-09-17T10:43:41.376Z,82.28
2022-09-17T10:46:17.192Z,82.43
2022-09-17T10:48:50.805Z,81.41
2022-09-17T10:51:23.923Z,82.06
2022-09-17T10:54:06.048Z,80.53
2022-09-17T10:56:37.631Z,80.96
2022-09-17T10:59:33.922Z,81.66
2022-09-17T11:02:03.294Z,80.86
2022-09-17T11:04:40.206Z,80.27
2022-09-17T11:07:47.626Z,79.87
2022-09-17T11:10:25.116Z,80.25
2022-09-17T11:13:17.656Z,80.58
2022-09-17T11:15:58.324Z,80.17
2022-09-17T11:18:40.866Z,80.81
2022-09-17T11:21:14.708Z,80.61
2022-09-17T11:24:05.581Z,80.65
2022-09-17T11:27:09.401Z,78.75
2022-09-17T11:29:54.631Z,77.34
2022-09-17T11:32:34.458Z,76.79
2022-09-17T11:35:12.816Z,75.09
2022-09-17T11:37:48.836Z,75.33
2022-09-17T11:40:26.572Z,72.72
2022-09-17T11:43:02.510Z,72.65
2022-09-17T11:45:53.500Z,71.02
2022-09-17T11:48:25.313Z,70.92
2022-09-17T11:51:04.766Z,70.02
2022-09-17T11:53:57.530Z,71.49
2022-09-17T11:56:34.042Z,71.73
2022-09-17T11:59:11.364Z,70.71
2022-09-17T12:01:49.323Z,69.71
2022-09-17T12:04:50.498Z,66.93
2022-09-17T12:07:36.277Z,63.90
2022-09-17T12:10:39.881Z,64.50
2022-09-17T12:13:51.418Z,63.84
2022-09-17T12:16:38.930Z,63.65
2022-09-17T12:19:23.467Z,65.56
2022-09-17T12:21:54.882Z,66.34
2022-09-17T12:24:32.111Z,68.08
2022-09-17T12:27:30.504Z,69.62
2022-09-17T12:30:04.834Z,70.46
2022-09-17T12:33:03.110Z,71.90
2022-09-17T12:36:03.401Z,72.63
2022-09-17T12:39:02.647Z,74.25
2022-09-17T12:42:06.164Z,74.75
2022-09-17T12:44:49.224Z,76.10
2022-09-17T12:47:46.397Z,76.64
2022-09-17T12:50:37.883Z,77.11
2022-09-17T12:53:23.240Z,77.91
2022-09-17T12:56:27.955Z,78.74
2022-09-17T12:59:00.569Z,79.26
2022-09-17T13:01:38.815Z,79.90
2022-09-17T13:04:59.491Z,80.82
2022-09-17T13:07:52.508Z,80.48
2022-09-17T13:10:27.036Z,80.28
2022-09-17T13:13:13.129Z,78.52
2022-09-17T13:16:01.365Z,78.25
2022-09-17T13:18:53.490Z,78.27
2022-09-17T13:21:52.800Z,77.42
2022-09-17T13:24:22.516Z,77.83
2022-09-17T13:26:49.246Z,77.63
2022-09-17T13:29:43.675Z,77.24
2022-09-17T13:32:32.820Z,77.14
2022-09-17T13:35:11.531Z,77.92
2022-09-17T13:37:54.966Z,78.52
2022-09-17T13:40:24.335Z,79.24
2022-09-17T13:43:13.836Z,79.03
2022-09-17T13:45:58.537Z,78.65
2022-09-17T13:48:28.651Z,79.20
2022-09-17T13:50:55.444Z,78.86
2022-09-17T13:53:26.893Z,80.20
2022-09-17T13:55:55.899Z,81.14
2022-09-17T13:58:27.623Z,81.53
2022-09-17T14:01:07.734Z,82.25
2022-09-17T14:03:34.249Z,81.99
2022-09-17T14:06:11.105Z,81.60
2022-09-17T14:08:47.843Z,81.39
2022-09-17T14:11:23.608Z,81.22
2022-09-17T14:13:50.991Z,80.73
2022-09-17T14:16:43.211Z,80.42
2022-09-17T14:19:15.424Z,80.63
2022-09-17T14:21:59.551Z,80.53
2022-09-17T14:24:35.076Z,78.84
2022-09-17T14:27:07.538Z,78.51
2022-09-17T14:29:50.167Z,78.36
2022-09-17T14:32:21.710Z,78.20
2022-09-17T14:34:49.628Z,79.01
2022-09-17T14:37:20.564Z,78.88
2022-09-17T14:39:48.926Z,78.29
2022-09-17T14:42:21.686Z,76.36
2022-09-17T14:44:58.717Z,75.44
2022-09-17T14:47:26.856Z,74.43
2022-09-17T14:49:54.312Z,73.78
2022-09-17T14:52:32.574Z,74.38
2022-09-17T14:55:26.470Z,73.82
2022-09-17T14:57:54.998Z,70.82
2022-09-17T15:00:28.224Z,69.88
2022-09-17T15:03:00.373Z,67.31
2022-09-17T15:05:29.622Z,66.19
2022-09-17T15:08:07.471Z,66.20
2022-09-17T15:10:36.898Z,63.42
2022-09-17T15:13:07.118Z,63.37
2022-09-17T15:15:35.016Z,63.11
2022-09-17T15:18:01.379Z,62.66
2022-09-17T15:20:31.163Z,63.31
2022-09-17T15:23:23.598Z,61.96
2022-09-17T15:25:54.694Z,62.01
2022-09-17T15:28:31.005Z,61.25
2022-09-17T15:30:57.555Z,61.31
2022-09-17T15:33:24.450Z,63.40
2022-09-17T15:36:09.546Z,65.87
2022-09-17T15:38:36.787Z,66.71
2022-09-17T15:41:30.977Z,68.16
2022-09-17T15:44:31.390Z,69.64
2022-09-17T15:47:36.711Z,69.23
2022-09-17T15:50:15.705Z,69.56
2022-09-17T15:52:42.532Z,71.37
2022-09-17T15:55:38.174Z,72.88
2022-09-17T15:58:18.906Z,74.10
2022-09-17T16:00:45.605Z,74.73
2022-09-17T16:03:33.955Z,75.88
2022-09-17T16:06:04.002Z,76.12
2022-09-17T16:08:34.917Z,76.81
2022-09-17T16:11:01.279Z,77.15
2022-09-17T16:13:28.779Z,78.01
2022-09-17T16:15:55.315Z,77.98
2022-09-17T16:18:21.698Z,77.81
2022-09-17T16:20:48.065Z,77.18
2022-09-17T16:23:14.491Z,77.50
2022-09-17T16:25:41.734Z,77.02
2022-09-17T16:28:14.225Z,76.47
2022-09-17T16:30:44.009Z,76.65
2022-09-17T16:33:12.106Z,76.74
2022-09-17T16:35:38.620Z,77.37
2022-09-17T16:38:05.205Z,78.30
2022-09-17T16:40:31.669Z,78.98
2022-09-17T16:43:03.085Z,79.26
2022-09-17T16:45:30.323Z,80.37
2022-09-17T16:47:56.744Z,81.43
2022-09-17T16:50:23.902Z,82.32
2022-09-17T16:52:50.648Z,83.12
2022-09-17T16:55:18.105Z,83.75
2022-09-17T16:57:44.637Z,84.42
2022-09-17T17:00:16.071Z,84.48
2022-09-17T17:02:43.814Z,84.49
2022-09-17T17:05:13.089Z,83.56
2022-09-17T17:07:39.502Z,82.97
2022-09-17T17:10:09.392Z,83.79
2022-09-17T17:12:37.405Z,84.85
2022-09-17T17:15:06.120Z,85.66
2022-09-17T17:17:35.526Z,85.93
2022-09-17T17:20:07.637Z,86.46
2022-09-17T17:22:34.161Z,87.15
2022-09-17T17:25:00.634Z,87.29
2022-09-17T17:27:27.063Z,87.59
2022-09-17T17:29:53.423Z,87.48
2022-09-17T17:32:19.834Z,87.93
2022-09-17T17:34:46.196Z,87.88
2022-09-17T17:37:14.212Z,88.22
2022-09-17T17:39:40.960Z,88.22
2022-09-17T17:42:08.003Z,88.27
2022-09-17T17:44:34.542Z,88.33
2022-09-17T17:47:01.850Z,88.06
2022-09-17T17:49:28.261Z,88.38
2022-09-17T17:51:54.664Z,88.82
2022-09-17T17:54:21.936Z,88.89
2022-09-17T17:56:48.613Z,88.51
2022-09-17T17:59:14.956Z,88.31
2022-09-17T18:01:41.352Z,88.43
2022-09-17T18:04:08.379Z,88.27
2022-09-17T18:06:34.833Z,88.25
2022-09-17T18:09:01.709Z,87.98
2022-09-17T18:11:28.598Z,88.06
2022-09-17T18:13:56.897Z,87.93
2022-09-17T18:16:24.358Z,87.63
2022-09-17T18:18:50.772Z,87.96
2022-09-17T18:21:19.429Z,88.13
2022-09-17T18:23:46.766Z,87.37
2022-09-17T18:26:21.453Z,86.95
2022-09-17T18:28:48.490Z,86.86
2022-09-17T18:31:22.125Z,87.56
2022-09-17T18:33:59.928Z,87.92
2022-09-17T18:36:28.416Z,88.50
2022-09-17T18:39:16.722Z,88.91
2022-09-17T18:41:47.636Z,89.47
2022-09-17T18:44:14.023Z,89.50
2022-09-17T18:46:42.416Z,90.23
2022-09-17T18:49:08.899Z,89.63
2022-09-17T18:51:35.310Z,90.22
2022-09-17T18:54:03.051Z,90.29
2022-09-17T18:56:32.880Z,89.96
2022-09-17T18:59:02.392Z,90.05
2022-09-17T19:01:32.503Z,90.41
2022-09-17T19:03:59.694Z,91.19
2022-09-17T19:06:27.613Z,91.26
2022-09-17T19:08:55.765Z,91.56
2022-09-17T19:11:22.084Z,91.37
2022-09-17T19:13:51.248Z,91.49
2022-09-17T19:16:17.767Z,91.57
2022-09-17T19:18:44.270Z,91.63
2022-09-17T19:21:16.066Z,92.08
2022-09-17T19:23:44.765Z,92.38
2022-09-17T19:26:14.050Z,91.83
2022-09-17T19:28:40.654Z,92.50
2022-09-17T19:31:09.524Z,93.03
2022-09-17T19:33:36.192Z,93.20
2022-09-17T19:36:04.787Z,93.65
2022-09-17T19:38:31.474Z,93.50
2022-09-17T19:41:07.117Z,93.91
2022-09-17T19:43:33.641Z,93.59
2022-09-17T19:46:05.555Z,94.10
2022-09-17T19:48:33.086Z,94.48
2022-09-17T19:50:59.474Z,94.30
2022-09-17T19:53:25.903Z,94.69
2022-09-17T19:55:52.332Z,94.92
2022-09-17T19:58:18.771Z,94.56
2022-09-17T20:00:45.219Z,94.82
2022-09-17T20:03:12.328Z,94.83
2022-09-17T20:05:38.748Z,94.70
2022-09-17T20:08:05.184Z,94.82
2022-09-17T20:10:36.330Z,94.97
2022-09-17T20:13:03.260Z,94.73
2022-09-17T20:15:29.688Z,94.30
2022-09-17T20:17:56.055Z,93.98
2022-09-17T20:20:28.156Z,93.46
2022-09-17T20:22:55.861Z,93.95
2022-09-17T20:25:24.030Z,93.02
2022-09-17T20:27:50.434Z,92.96
2022-09-17T20:30:16.843Z,93.02
2022-09-17T20:32:43.190Z,92.07
2022-09-17T20:35:09.526Z,92.61
2022-09-17T20:38:23.203Z,91.51
2022-09-17T20:40:22.291Z,90.32
2022-09-17T20:42:48.739Z,90.59
2022-09-17T20:45:15.079Z,90.22
2022-09-17T20:47:41.714Z,90.19
2022-09-17T20:50:08.368Z,89.96
2022-09-17T20:52:34.734Z,90.07
2022-09-17T20:55:01.094Z,89.15
2022-09-17T20:57:27.477Z,89.31
2022-09-17T20:59:56.657Z,89.32
2022-09-17T21:02:23.134Z,90.10
2022-09-17T21:04:53.556Z,90.30
2022-09-17T21:07:20.516Z,90.37
2022-09-17T21:09:47.175Z,90.25
2022-09-17T21:12:13.565Z,90.49
2022-09-17T21:14:39.939Z,91.38
2022-09-17T21:17:06.408Z,91.25
2022-09-17T21:19:32.837Z,91.38
2022-09-17T21:21:59.174Z,91.98
2022-09-17T21:24:25.606Z,91.73
2022-09-17T21:26:53.963Z,91.93
2022-09-17T21:29:20.705Z,92.32
2022-09-17T21:31:47.274Z,92.09
2022-09-17T21:34:14.180Z,92.36
2022-09-17T21:36:42.051Z,93.51
2022-09-17T21:39:14.578Z,92.68
2022-09-17T21:41:42.952Z,92.71
2022-09-17T21:44:11.353Z,93.52
2022-09-17T21:46:38.480Z,93.18
2022-09-17T21:49:05.466Z,93.04
2022-09-17T21:51:36.453Z,93.41
2022-09-17T21:54:08.559Z,92.93
2022-09-17T21:56:35.374Z,92.95
2022-09-17T21:59:06.233Z,93.04
2022-09-17T22:01:42.135Z,92.40
2022-09-17T22:04:12.479Z,91.48
2022-09-17T22:06:40.073Z,90.22
2022-09-17T22:09:08.274Z,90.45
2022-09-17T22:11:37.085Z,89.94
2022-09-17T22:14:10.934Z,89.70
2022-09-17T22:16:39.761Z,89.66
2022-09-17T22:19:07.153Z,89.12
2022-09-17T22:21:36.399Z,89.57
2022-09-17T22:24:04.419Z,89.84
2022-09-17T22:26:34.298Z,90.36
2022-09-17T22:29:03.448Z,90.64
2022-09-17T22:31:30.266Z,90.26
2022-09-17T22:33:56.705Z,91.42
2022-09-17T22:36:25.228Z,91.27
2022-09-17T22:38:54.468Z,92.22
2022-09-17T22:41:29.349Z,92.02
2022-09-17T22:43:58.765Z,92.80
2022-09-17T22:46:27.791Z,92.60
2022-09-17T22:48:54.661Z,92.80
2022-09-17T22:51:21.233Z,93.48
2022-09-17T22:53:47.695Z,92.96
2022-09-17T22:56:17.249Z,93.43
2022-09-17T22:58:44.317Z,94.03
2022-09-17T23:01:13.827Z,93.79
2022-09-17T23:03:40.745Z,94.23
2022-09-17T23:06:12.271Z,94.43
2022-09-17T23:08:39.391Z,95.66
2022-09-17T23:11:08.624Z,95.93
2022-09-17T23:13:35.736Z,95.21
2022-09-17T23:16:08.059Z,95.56
2022-09-17T23:18:35.977Z,96.16
2022-09-17T23:21:08.459Z,96.17
2022-09-17T23:23:36.014Z,96.28
2022-09-17T23:26:04.837Z,95.74
2022-09-17T23:28:31.337Z,96.00
2022-09-17T23:30:57.874Z,95.75
2022-09-17T23:33:24.213Z,96.03
2022-09-17T23:35:50.543Z,96.01
2022-09-17T23:38:16.856Z,95.93
2022-09-17T23:40:43.247Z,96.32
2022-09-17T23:43:09.584Z,96.22
2022-09-17T23:45:35.954Z,96.16
2022-09-17T23:48:02.316Z,95.61
2022-09-17T23:50:28.714Z,95.71
2022-09-17T23:52:55.048Z,96.17
2022-09-17T23:55:21.450Z,95.45
2022-09-17T23:57:47.795Z,95.43
